This is the latest recevied weather packets stored in our database for station/object AE6BH. If no packets are shown the sender has not sent any weather packets the latest 1 day(s).
| Time | Temp. | Humidity | Pressure | Rain* | Wind** | Luminosity | Snow |
|---|---|---|---|---|---|---|---|
| 1778086836 | 18.89° C | 53% | 1018.9 hPa | 0 mm | - | 654 W/m² | - |
| 1778086534 | 18.89° C | 52% | 1018.8 hPa | 0 mm | - | 647 W/m² | - |
| 1778086230 | 19.44° C | 52% | 1018.7 hPa | 0 mm | - | 647 W/m² | - |
| 1778085016 | 18.33° C | 59% | 1018.8 hPa | 0 mm | - | 547 W/m² | - |
| 1778084410 | 17.22° C | 64% | 1018.7 hPa | 0 mm | - | 520 W/m² | - |
| 1778081486 | 16.11° C | 69% | 1018.9 hPa | 0 mm | - | 228 W/m² | - |
| 1778078760 | 11.67° C | 88% | 1018.9 hPa | 0 mm | - | 47 W/m² | - |
| 1778078155 | 11.11° C | 93% | 1018.9 hPa | 0 mm | - | 38 W/m² | - |
| 1778076946 | 10° C | 93% | 1018.7 hPa | 0 mm | - | 32 W/m² | - |
| 1778076644 | 10° C | 93% | 1018.6 hPa | 0 mm | - | 31 W/m² | - |
| 1778075128 | 8.89° C | 93% | 1018.6 hPa | 0 mm | - | 24 W/m² | - |
| 1778074824 | 8.33° C | 93% | 1018.5 hPa | 0 mm | - | 21 W/m² | - |
| 1778073006 | 7.22° C | 93% | 1018.5 hPa | 0 mm | - | 6 W/m² | - |
| 1778072703 | 7.22° C | 93% | 1018.2 hPa | 0 mm | - | 4 W/m² | - |
| 1778069375 | 7.78° C | 92% | 1018 hPa | 0 mm | - | 0 W/m² | - |
| 1778067863 | 8.33° C | 92% | 1017.7 hPa | 0 mm | - | 0 W/m² | - |
| 1778067259 | 7.78° C | 91% | 1017.8 hPa | 0 mm | - | 0 W/m² | - |
| 1778066955 | 8.33° C | 91% | 1017.8 hPa | 0 mm | - | 0 W/m² | - |
| 1778066350 | 8.33° C | 91% | 1017.7 hPa | 0 mm | - | 0 W/m² | - |
| 1778065139 | 8.33° C | 91% | 1017.7 hPa | 0 mm | - | 0 W/m² | - |
| 1778064533 | 8.89° C | 91% | 1017.7 hPa | 0 mm | - | 0 W/m² | - |
| 1778063928 | 8.89° C | 90% | 1017.9 hPa | 0 mm | - | 0 W/m² | - |
| 1778062717 | 8.33° C | 88% | 1017.9 hPa | 0 mm | - | 0 W/m² | - |
| 1778061204 | 8.89° C | 88% | 1017.5 hPa | 0 mm | - | 0 W/m² | - |
| 1778060901 | 8.89° C | 88% | 1017.9 hPa | 0 mm | - | 0 W/m² | - |
* Rain latest hour (hover to see other rain measurements)
** Current wind speed in m/s (hover to see current wind gust speed)